Time;durP1;ratioP1;P1;durP2;ratioP2;P2;SDS_P1;SDS_P2;PMS_P1;PMS_P2;Temp;Humidity;BMP_temperature;BMP_pressure;BME280_temperature;BME280_humidity;BME280_pressure;Samples;Min_cycle;Max_cycle;Signal;HPM_P1;HPM_P2
2020/12/21 00:01:23;;;;;;;14.88;5.45;;;6.60;99.90;;;;;;5080114;28;20066;-94
2020/12/21 00:03:53;;;;;;;11.82;5.32;;;6.50;99.90;;;;;;5079739;28;20057;-95
2020/12/21 00:06:24;;;;;;;12.63;5.22;;;6.50;99.90;;;;;;5061353;28;20460;-95
2020/12/21 00:08:50;;;;;;;12.18;4.82;;;6.50;99.90;;;;;;5060859;28;20475;-95
2020/12/21 00:11:16;;;;;;;8.02;4.53;;;6.50;99.90;;;;;;5061589;28;20017;-96
2020/12/21 00:13:50;;;;;;;17.20;5.88;;;6.40;99.90;;;;;;5060885;28;20043;-95
2020/12/21 00:16:19;;;;;;;16.63;5.95;;;6.40;99.90;;;;;;5061383;28;20029;-93
2020/12/21 00:18:45;;;;;;;15.23;5.80;;;6.40;99.90;;;;;;5056815;28;20045;-94
2020/12/21 00:21:11;;;;;;;11.38;5.18;;;6.40;99.90;;;;;;5059033;28;20364;-95
2020/12/21 00:23:37;;;;;;;17.77;7.07;;;6.40;99.90;;;;;;5068310;28;20021;-93
2020/12/21 00:26:07;;;;;;;14.80;6.20;;;6.40;99.90;;;;;;5062247;28;20021;-96
2020/12/21 00:28:33;;;;;;;13.93;5.43;;;6.40;99.90;;;;;;5057864;28;20166;-94
2020/12/21 00:31:07;;;;;;;12.05;5.30;;;6.40;99.90;;;;;;5057234;28;20044;-94
2020/12/21 00:33:33;;;;;;;12.63;5.78;;;6.40;99.90;;;;;;5056874;28;20024;-95
2020/12/21 00:36:02;;;;;;;18.67;6.75;;;6.30;99.90;;;;;;5056890;28;20108;-94
2020/12/21 00:38:28;;;;;;;14.68;6.53;;;6.30;99.90;;;;;;5069240;28;20016;-95
2020/12/21 00:40:55;;;;;;;17.95;6.28;;;6.30;99.90;;;;;;5077211;28;20023;-94
2020/12/21 00:43:21;;;;;;;17.75;5.53;;;6.30;99.90;;;;;;5076866;28;20013;-95
2020/12/21 00:45:47;;;;;;;13.10;5.45;;;6.30;99.90;;;;;;5076797;28;20105;-95
2020/12/21 00:48:13;;;;;;;13.43;6.13;;;6.30;99.90;;;;;;5061725;28;20484;-95
2020/12/21 00:50:40;;;;;;;17.27;6.72;;;6.20;99.90;;;;;;5062687;28;20029;-95
2020/12/21 00:53:05;;;;;;;16.10;6.00;;;6.30;99.90;;;;;;5067610;28;20107;-93
2020/12/21 00:55:31;;;;;;;13.35;6.80;;;6.20;99.90;;;;;;5071005;28;20051;-93
2020/12/21 00:57:57;;;;;;;14.82;5.22;;;6.20;99.90;;;;;;5060808;28;20036;-94
2020/12/21 01:00:28;;;;;;;17.55;6.22;;;6.20;99.90;;;;;;5070691;28;20115;-94
2020/12/21 01:02:54;;;;;;;16.60;6.18;;;6.20;99.90;;;;;;5066729;28;20015;-93
2020/12/21 01:05:19;;;;;;;17.52;5.95;;;6.20;99.90;;;;;;5068664;28;20111;-94
2020/12/21 01:07:45;;;;;;;11.80;5.47;;;6.20;99.90;;;;;;5064937;28;20017;-94
2020/12/21 01:10:11;;;;;;;19.92;7.07;;;6.20;99.90;;;;;;5066567;28;20029;-94
2020/12/21 01:12:36;;;;;;;19.98;5.95;;;6.20;99.90;;;;;;5059804;28;20445;-93
2020/12/21 01:15:03;;;;;;;12.32;5.80;;;6.20;99.90;;;;;;5062552;28;20100;-94
2020/12/21 01:17:32;;;;;;;19.63;6.78;;;6.10;99.90;;;;;;5069741;28;20109;-95
2020/12/21 01:20:01;;;;;;;14.27;5.50;;;6.10;99.90;;;;;;5066314;28;20033;-94
2020/12/21 01:22:28;;;;;;;16.17;6.97;;;6.10;99.90;;;;;;5086223;28;20025;-94
2020/12/21 01:24:54;;;;;;;14.57;6.25;;;6.10;99.90;;;;;;5084467;28;20035;-95
2020/12/21 01:27:19;;;;;;;13.85;6.10;;;6.10;99.90;;;;;;5059062;28;20020;-94
2020/12/21 01:29:46;;;;;;;14.50;5.85;;;6.10;99.90;;;;;;5085260;28;20505;-94
2020/12/21 01:32:12;;;;;;;14.82;5.90;;;6.10;99.90;;;;;;5089417;28;20021;-95
2020/12/21 01:34:38;;;;;;;15.80;6.07;;;6.00;99.90;;;;;;5078823;28;20047;-96
2020/12/21 01:37:04;;;;;;;16.63;5.90;;;6.10;99.90;;;;;;5059649;28;20027;-96
2020/12/21 01:39:30;;;;;;;16.88;6.25;;;6.00;99.90;;;;;;5059065;28;20032;-94
2020/12/21 01:41:56;;;;;;;15.63;6.28;;;6.00;99.90;;;;;;5077193;28;20025;-95
2020/12/21 01:44:22;;;;;;;12.77;4.93;;;6.00;99.90;;;;;;5077233;28;20039;-96
2020/12/21 01:46:47;;;;;;;12.52;4.97;;;6.00;99.90;;;;;;5059258;28;20017;-95
2020/12/21 01:49:14;;;;;;;13.65;5.43;;;6.00;99.90;;;;;;5059182;28;20066;-95
2020/12/21 01:51:40;;;;;;;19.40;5.80;;;6.00;99.90;;;;;;5076813;28;20152;-96
2020/12/21 01:54:07;;;;;;;18.27;6.32;;;6.10;99.90;;;;;;5077033;28;20036;-93
2020/12/21 01:56:35;;;;;;;13.25;5.82;;;6.10;99.90;;;;;;5059271;28;20379;-94
2020/12/21 01:59:01;;;;;;;17.02;6.00;;;6.10;99.90;;;;;;5066516;28;20032;-95
2020/12/21 02:01:29;;;;;;;15.88;5.80;;;6.10;99.90;;;;;;5060993;28;20012;-95
2020/12/21 02:03:55;;;;;;;17.38;6.75;;;6.10;99.90;;;;;;5075659;28;20016;-95
2020/12/21 02:06:21;;;;;;;13.23;6.40;;;6.10;99.90;;;;;;5078805;28;20039;-94
2020/12/21 02:08:46;;;;;;;13.85;5.63;;;6.10;99.90;;;;;;5078840;28;20016;-95
2020/12/21 02:11:12;;;;;;;16.27;5.72;;;6.10;99.90;;;;;;5087903;28;20020;-96
2020/12/21 02:13:38;;;;;;;18.10;6.60;;;6.10;99.90;;;;;;5076226;28;20020;-96
2020/12/21 02:16:04;;;;;;;17.05;5.68;;;6.10;99.90;;;;;;5076720;28;20024;-94
2020/12/21 02:18:30;;;;;;;12.75;5.15;;;6.10;99.90;;;;;;5066358;28;20122;-96
2020/12/21 02:20:56;;;;;;;15.07;4.93;;;6.10;99.90;;;;;;5068167;28;20070;-96
2020/12/21 02:23:21;;;;;;;18.83;5.80;;;6.10;99.90;;;;;;5067629;28;20020;-95
2020/12/21 02:25:47;;;;;;;13.55;4.88;;;6.00;99.90;;;;;;5060128;28;20024;-95
2020/12/21 02:28:14;;;;;;;14.45;5.22;;;6.00;99.90;;;;;;5058962;28;20028;-94
2020/12/21 02:30:40;;;;;;;18.92;6.63;;;6.00;99.90;;;;;;5058828;28;20032;-95
2020/12/21 02:33:08;;;;;;;15.52;5.82;;;6.00;99.90;;;;;;5076236;28;20016;-94
2020/12/21 02:35:35;;;;;;;15.23;5.18;;;6.00;99.90;;;;;;5060568;28;20054;-96
2020/12/21 02:38:06;;;;;;;13.25;5.20;;;6.00;99.90;;;;;;5058387;28;20107;-96
2020/12/21 02:40:36;;;;;;;15.77;5.07;;;6.00;99.90;;;;;;5057952;28;20035;-95
2020/12/21 02:43:03;;;;;;;11.77;4.88;;;5.90;99.90;;;;;;5058387;28;20013;-96
2020/12/21 02:45:31;;;;;;;17.48;6.35;;;6.00;99.90;;;;;;5058152;28;20073;-96
2020/12/21 02:47:57;;;;;;;15.50;5.65;;;5.90;99.90;;;;;;5057016;28;20118;-95
2020/12/21 02:50:23;;;;;;;14.38;5.20;;;6.00;99.90;;;;;;5075762;28;20033;-96
2020/12/21 02:52:49;;;;;;;15.00;5.30;;;6.00;99.90;;;;;;5075765;28;20092;-95
2020/12/21 02:55:15;;;;;;;16.73;5.55;;;6.00;99.90;;;;;;5075557;28;20320;-94
2020/12/21 02:57:41;;;;;;;14.32;5.57;;;6.00;99.90;;;;;;5057673;28;20013;-96
2020/12/21 03:00:08;;;;;;;19.33;5.80;;;6.00;99.90;;;;;;5057331;28;20051;-96
2020/12/21 03:02:34;;;;;;;14.60;5.10;;;5.90;99.90;;;;;;5057687;28;20032;-96
2020/12/21 03:05:00;;;;;;;17.73;5.57;;;5.90;99.90;;;;;;5057334;28;20027;-96
2020/12/21 03:07:26;;;;;;;14.65;5.25;;;5.90;99.90;;;;;;5057202;28;20103;-96
2020/12/21 03:09:51;;;;;;;15.98;6.13;;;5.90;99.90;;;;;;5056918;28;20100;-95
2020/12/21 03:12:17;;;;;;;13.63;4.93;;;5.90;99.90;;;;;;5056667;28;20028;-96
2020/12/21 03:14:42;;;;;;;19.45;7.00;;;5.90;99.90;;;;;;5056369;28;20070;-96
2020/12/21 03:17:08;;;;;;;17.88;5.55;;;5.90;99.90;;;;;;5074218;28;20380;-95
2020/12/21 03:19:33;;;;;;;14.35;5.25;;;5.90;99.90;;;;;;5073998;28;20060;-95
2020/12/21 03:21:59;;;;;;;12.65;5.32;;;5.90;99.90;;;;;;5074626;28;20027;-95
2020/12/21 03:24:25;;;;;;;14.88;5.63;;;5.90;99.90;;;;;;5057534;28;20439;-96
2020/12/21 03:26:50;;;;;;;15.30;5.38;;;5.90;99.90;;;;;;5074969;28;20024;-96
2020/12/21 03:29:17;;;;;;;13.18;4.60;;;5.90;99.90;;;;;;5075070;28;20033;-96
2020/12/21 03:31:43;;;;;;;15.93;4.57;;;6.00;99.90;;;;;;5058863;28;20023;-96
2020/12/21 03:34:09;;;;;;;17.80;4.88;;;6.00;99.90;;;;;;5060818;28;20024;-96
2020/12/21 03:36:34;;;;;;;15.00;5.25;;;6.00;99.90;;;;;;5044597;28;20020;-94
2020/12/21 03:39:00;;;;;;;14.82;4.70;;;6.00;99.90;;;;;;5061341;28;20029;-96
2020/12/21 03:41:25;;;;;;;15.27;4.63;;;6.00;99.90;;;;;;5079279;28;20031;-96
2020/12/21 03:43:51;;;;;;;14.98;4.43;;;6.00;99.90;;;;;;5061164;28;20013;-95
2020/12/21 03:46:17;;;;;;;10.85;4.30;;;6.00;99.90;;;;;;5079518;28;20013;-96
2020/12/21 03:48:42;;;;;;;11.73;4.75;;;6.00;99.90;;;;;;5060854;28;20025;-96
2020/12/21 03:51:09;;;;;;;13.82;5.20;;;6.00;99.90;;;;;;5079311;28;20024;-96
2020/12/21 03:53:35;;;;;;;11.85;4.00;;;6.00;99.90;;;;;;5061704;28;20043;-96
2020/12/21 03:56:00;;;;;;;11.13;4.38;;;5.90;99.90;;;;;;5061478;28;20452;-96
2020/12/21 03:58:26;;;;;;;15.65;4.65;;;5.90;99.90;;;;;;5061299;28;20032;-96
2020/12/21 04:00:51;;;;;;;14.18;5.47;;;5.90;99.90;;;;;;5061065;28;20460;-96
2020/12/21 04:03:17;;;;;;;15.20;5.03;;;5.90;99.90;;;;;;5060963;28;20111;-95
2020/12/21 04:05:42;;;;;;;15.63;4.32;;;5.90;99.90;;;;;;5060722;28;20460;-96
2020/12/21 04:08:08;;;;;;;14.30;4.97;;;5.90;99.90;;;;;;5060881;28;20016;-96
2020/12/21 04:10:34;;;;;;;14.40;5.10;;;5.90;99.90;;;;;;5060741;28;20175;-96
2020/12/21 04:12:59;;;;;;;12.10;4.13;;;5.90;99.90;;;;;;5078418;28;20452;-96
2020/12/21 04:15:25;;;;;;;20.73;5.65;;;5.90;99.90;;;;;;5060225;28;20016;-96
2020/12/21 04:17:51;;;;;;;13.02;5.18;;;5.90;99.90;;;;;;5060623;28;20060;-96
2020/12/21 04:20:19;;;;;;;10.85;4.55;;;5.90;99.90;;;;;;5060309;28;20035;-96
2020/12/21 04:22:45;;;;;;;12.18;5.43;;;5.90;99.90;;;;;;5060756;28;20059;-96
2020/12/21 04:25:10;;;;;;;12.75;4.82;;;5.90;99.90;;;;;;5060542;28;20394;-96
2020/12/21 04:27:36;;;;;;;12.40;5.15;;;6.00;99.90;;;;;;5060675;28;20023;-96
2020/12/21 04:30:03;;;;;;;17.45;5.00;;;5.90;99.90;;;;;;5060543;28;20023;-95
2020/12/21 04:32:29;;;;;;;13.32;4.43;;;5.90;99.90;;;;;;5078276;28;20016;-96
2020/12/21 04:34:54;;;;;;;10.23;4.22;;;5.80;99.90;;;;;;5060237;28;20364;-96
2020/12/21 04:37:20;;;;;;;10.30;4.55;;;5.80;99.90;;;;;;5060713;28;20025;-95
2020/12/21 04:39:46;;;;;;;13.85;4.63;;;5.80;99.90;;;;;;5068001;28;20032;-96
2020/12/21 04:42:12;;;;;;;8.27;4.40;;;5.80;99.90;;;;;;5072217;28;20031;-96
2020/12/21 04:44:38;;;;;;;11.80;5.03;;;5.80;99.90;;;;;;5071604;28;20021;-96
2020/12/21 04:47:05;;;;;;;14.00;4.15;;;5.80;99.90;;;;;;5083485;28;20035;-96
2020/12/21 04:49:33;;;;;;;13.18;4.30;;;5.80;99.90;;;;;;5100774;28;20031;-95
2020/12/21 04:52:05;;;;;;;12.90;4.07;;;5.80;99.90;;;;;;5077531;28;20017;-96
2020/12/21 04:54:32;;;;;;;12.95;4.55;;;5.80;99.90;;;;;;5079679;28;20020;-96
2020/12/21 04:56:59;;;;;;;13.60;4.10;;;5.80;99.90;;;;;;5078667;28;20057;-95
2020/12/21 04:59:27;;;;;;;11.00;3.95;;;5.80;99.90;;;;;;5060585;28;20032;-96
2020/12/21 05:01:55;;;;;;;12.70;4.13;;;5.80;99.90;;;;;;5043945;28;20127;-96
2020/12/21 05:04:24;;;;;;;11.07;4.30;;;5.80;99.90;;;;;;5060995;28;20024;-95
2020/12/21 05:06:56;;;;;;;14.45;4.47;;;5.80;99.90;;;;;;5060805;28;20116;-96
2020/12/21 05:09:26;;;;;;;13.47;4.53;;;5.80;99.90;;;;;;5077857;28;20025;-96
2020/12/21 05:12:03;;;;;;;14.23;4.22;;;5.80;99.90;;;;;;5059824;28;20267;-96
2020/12/21 05:14:34;;;;;;;10.73;4.20;;;5.80;99.90;;;;;;5059879;28;20107;-95
2020/12/21 05:17:13;;;;;;;11.05;3.47;;;5.80;99.90;;;;;;5059801;28;20013;-96
2020/12/21 05:19:40;;;;;;;8.35;4.05;;;5.80;99.90;;;;;;5059344;28;20039;-95
2020/12/21 05:22:13;;;;;;;13.10;4.30;;;5.80;99.90;;;;;;5059473;28;20025;-96
2020/12/21 05:24:39;;;;;;;;;;;5.80;99.90;;;;;;5043297;28;20021;-96
2020/12/21 05:27:18;;;;;;;13.50;3.95;;;5.80;99.90;;;;;;5058654;28;19901;-96
2020/12/21 05:30:03;;;;;;;13.88;4.10;;;5.80;99.90;;;;;;5059595;28;20115;-95
2020/12/21 05:32:29;;;;;;;11.52;3.88;;;5.80;99.90;;;;;;5057238;28;20024;-96
2020/12/21 05:35:07;;;;;;;13.77;3.83;;;5.80;99.90;;;;;;5059023;28;20024;-95
2020/12/21 05:37:34;;;;;;;10.20;3.80;;;5.80;99.90;;;;;;5059546;28;20020;-95
2020/12/21 05:40:00;;;;;;;12.60;3.42;;;5.80;99.90;;;;;;5058996;28;20028;-95
2020/12/21 05:42:26;;;;;;;11.05;4.40;;;5.80;99.90;;;;;;5076237;28;20024;-94
2020/12/21 05:44:52;;;;;;;13.80;4.22;;;5.80;99.90;;;;;;5058705;28;20076;-94
2020/12/21 05:47:18;;;;;;;10.98;3.88;;;5.90;99.90;;;;;;5059224;28;20068;-95
2020/12/21 05:49:54;;;;;;;12.82;3.30;;;5.90;99.90;;;;;;5058394;28;20020;-95
2020/12/21 05:52:28;;;;;;;15.48;4.10;;;5.90;99.90;;;;;;5060318;28;20041;-95
2020/12/21 05:54:54;;;;;;;10.88;3.90;;;5.90;99.90;;;;;;5069190;28;20051;-94
2020/12/21 05:57:21;;;;;;;13.65;3.97;;;5.90;99.90;;;;;;5057427;28;20089;-94
2020/12/21 05:59:51;;;;;;;11.95;3.80;;;5.90;99.90;;;;;;5065375;28;20036;-96
2020/12/21 06:02:19;;;;;;;14.15;4.45;;;5.90;99.90;;;;;;5076726;28;20032;-95
2020/12/21 06:04:50;;;;;;;9.88;3.42;;;5.90;99.90;;;;;;5062575;28;20016;-95
2020/12/21 06:07:23;;;;;;;20.13;5.60;;;5.90;99.90;;;;;;5056787;28;20025;-96
2020/12/21 06:09:56;;;;;;;8.23;3.35;;;5.90;99.90;;;;;;5058693;28;20056;-95
2020/12/21 06:12:22;;;;;;;12.73;4.13;;;5.90;99.90;;;;;;5075781;28;20016;-96
2020/12/21 06:14:54;;;;;;;11.13;3.45;;;5.90;99.90;;;;;;5057758;28;20033;-95
2020/12/21 06:17:20;;;;;;;12.95;4.15;;;5.90;99.90;;;;;;5079521;28;20023;-96
2020/12/21 06:19:46;;;;;;;10.02;3.90;;;5.90;99.90;;;;;;5064228;28;20028;-96
2020/12/21 06:22:22;;;;;;;12.48;4.18;;;5.90;99.90;;;;;;5058116;28;20029;-96
2020/12/21 06:24:48;;;;;;;14.25;4.60;;;5.90;99.90;;;;;;5058276;28;20470;-96
2020/12/21 06:27:16;;;;;;;9.65;3.70;;;5.90;99.90;;;;;;5057635;28;20115;-96
2020/12/21 06:29:42;;;;;;;12.02;4.30;;;5.90;99.90;;;;;;5058276;28;20052;-94
2020/12/21 06:32:09;;;;;;;13.13;4.65;;;5.90;99.90;;;;;;5058485;28;20099;-95
2020/12/21 06:34:39;;;;;;;12.57;4.20;;;5.90;99.90;;;;;;5086244;28;20808;-95
2020/12/21 06:37:09;;;;;;;12.70;3.67;;;5.90;99.90;;;;;;5063013;28;20009;-95
2020/12/21 06:39:37;;;;;;;10.45;3.78;;;5.90;99.90;;;;;;5069983;28;20025;-96
2020/12/21 06:42:20;;;;;;;11.85;3.90;;;6.00;99.90;;;;;;5065481;28;20020;-96
2020/12/21 06:44:46;;;;;;;;;;;6.00;99.90;;;;;;5071091;28;20467;-95
2020/12/21 06:47:15;;;;;;;15.50;4.22;;;5.90;99.90;;;;;;5062089;28;19978;-96
2020/12/21 06:49:53;;;;;;;8.20;3.30;;;5.90;99.90;;;;;;5058455;28;20111;-95
2020/12/21 06:52:20;;;;;;;8.45;4.00;;;5.90;99.90;;;;;;5059113;28;20036;-94
2020/12/21 06:54:49;;;;;;;11.05;3.60;;;5.90;99.90;;;;;;5071524;28;20043;-95
2020/12/21 06:57:15;;;;;;;13.55;4.70;;;5.90;99.90;;;;;;5095211;28;20030;-95
2020/12/21 06:59:41;;;;;;;10.10;4.65;;;5.90;99.90;;;;;;5075020;28;20083;-94
2020/12/21 07:02:06;;;;;;;14.20;4.55;;;6.00;99.90;;;;;;5067092;28;20005;-95
2020/12/21 07:04:38;;;;;;;11.57;3.42;;;6.00;99.90;;;;;;5081093;28;20062;-96
2020/12/21 07:07:06;;;;;;;14.98;4.10;;;6.00;99.90;;;;;;5069502;28;20103;-96
2020/12/21 07:09:35;;;;;;;12.75;4.45;;;6.00;99.90;;;;;;5085484;28;20012;-95
2020/12/21 07:12:07;;;;;;;14.10;4.00;;;6.00;99.90;;;;;;5065483;28;20040;-95
2020/12/21 07:14:38;;;;;;;12.25;4.05;;;6.10;99.90;;;;;;5064978;28;20028;-94
2020/12/21 07:17:16;;;;;;;11.18;4.40;;;6.10;99.90;;;;;;5072688;28;20021;-96
2020/12/21 07:19:43;;;;;;;14.80;4.30;;;6.10;99.90;;;;;;5063745;28;20036;-94
2020/12/21 07:22:11;;;;;;;14.60;4.68;;;6.20;99.90;;;;;;5069595;28;20367;-94
2020/12/21 07:24:40;;;;;;;14.57;4.88;;;6.20;99.90;;;;;;5074006;28;20020;-95
2020/12/21 07:27:06;;;;;;;16.67;4.25;;;6.30;99.90;;;;;;5060713;28;20028;-95
2020/12/21 07:29:38;;;;;;;11.07;4.30;;;6.40;99.90;;;;;;5072109;28;20760;-94
2020/12/21 07:32:05;;;;;;;12.80;3.97;;;6.40;99.90;;;;;;5070302;28;20023;-95
2020/12/21 07:34:34;;;;;;;12.15;4.65;;;6.40;99.90;;;;;;5071561;28;20149;-94
2020/12/21 07:37:10;;;;;;;16.15;4.50;;;6.40;99.90;;;;;;5066430;28;20020;-96
2020/12/21 07:39:36;;;;;;;13.38;5.72;;;6.50;99.90;;;;;;5066051;28;20029;-94
2020/12/21 07:42:05;;;;;;;13.25;4.15;;;6.50;99.90;;;;;;5093735;28;20035;-92
2020/12/21 07:44:37;;;;;;;10.35;3.90;;;6.50;99.90;;;;;;5092490;28;20035;-92
2020/12/21 07:47:07;;;;;;;11.63;3.83;;;6.50;99.90;;;;;;5074390;28;20023;-93
2020/12/21 07:49:34;;;;;;;13.73;4.32;;;6.60;99.90;;;;;;5064458;28;20023;-96
2020/12/21 07:52:03;;;;;;;11.07;4.07;;;6.50;99.90;;;;;;5084482;28;20044;-94
2020/12/21 07:54:45;;;;;;;9.73;3.78;;;6.60;99.90;;;;;;5063760;28;20359;-96
2020/12/21 07:57:14;;;;;;;10.10;3.65;;;6.60;99.90;;;;;;5093810;28;20027;-95
2020/12/21 07:59:40;;;;;;;13.38;4.63;;;6.60;99.90;;;;;;5057784;28;20025;-96
2020/12/21 08:02:09;;;;;;;8.57;4.25;;;6.60;99.90;;;;;;5070287;28;20097;-90
2020/12/21 08:04:36;;;;;;;11.73;4.18;;;6.60;99.90;;;;;;5087932;28;20094;-95
2020/12/21 08:07:14;;;;;;;10.95;3.70;;;6.70;99.90;;;;;;5068853;28;20009;-96
2020/12/21 08:09:40;;;;;;;10.57;3.35;;;6.70;99.90;;;;;;5082769;28;20027;-95
2020/12/21 08:12:11;;;;;;;12.40;3.50;;;6.70;99.90;;;;;;5074220;28;20120;-95
2020/12/21 08:14:38;;;;;;;13.15;4.10;;;6.80;99.90;;;;;;5064364;28;20016;-96
2020/12/21 08:17:18;;;;;;;12.75;4.35;;;6.80;99.90;;;;;;5062300;28;20024;-92
2020/12/21 08:20:03;;;;;;;11.52;3.45;;;6.80;99.90;;;;;;5068998;28;20068;-95
2020/12/21 08:22:33;;;;;;;12.77;4.18;;;6.80;99.90;;;;;;5072807;28;20104;-94
2020/12/21 08:25:09;;;;;;;13.32;3.30;;;6.90;99.90;;;;;;5075401;28;20008;-95
2020/12/21 08:27:35;;;;;;;10.65;3.08;;;7.00;99.90;;;;;;5069907;28;20166;-94
2020/12/21 08:30:12;;;;;;;12.18;3.35;;;7.00;99.90;;;;;;5066695;28;20516;-93
2020/12/21 08:32:38;;;;;;;9.20;3.50;;;7.00;99.90;;;;;;5079759;28;20021;-94
2020/12/21 08:35:07;;;;;;;9.15;3.20;;;7.00;99.90;;;;;;5069066;28;20012;-94
2020/12/21 08:37:34;;;;;;;9.68;3.13;;;7.00;99.90;;;;;;5069852;28;20037;-96
2020/12/21 08:40:20;;;;;;;14.00;3.97;;;7.00;99.90;;;;;;5060175;28;20020;-95
2020/12/21 08:42:46;;;;;;;11.15;2.92;;;7.10;99.90;;;;;;5070079;28;20020;-94
2020/12/21 08:45:20;;;;;;;11.35;2.92;;;7.10;99.90;;;;;;5061260;28;20032;-94
2020/12/21 08:47:47;;;;;;;7.68;2.90;;;7.10;99.90;;;;;;5071837;28;20069;-94
2020/12/21 08:50:15;;;;;;;12.18;3.92;;;7.10;99.90;;;;;;5067292;28;20036;-94
2020/12/21 08:52:57;;;;;;;13.93;3.75;;;7.20;99.90;;;;;;5080196;28;20032;-94
2020/12/21 08:55:25;;;;;;;13.73;3.08;;;7.30;99.90;;;;;;5052223;28;20085;-96
2020/12/21 08:57:52;;;;;;;8.07;3.00;;;7.30;99.90;;;;;;5068345;28;20127;-96
2020/12/21 09:00:18;;;;;;;10.70;3.22;;;7.30;99.90;;;;;;5058290;28;20469;-95
2020/12/21 09:02:49;;;;;;;10.80;3.40;;;7.30;99.90;;;;;;5057089;28;20027;-96
2020/12/21 09:05:20;;;;;;;13.43;3.55;;;7.30;99.90;;;;;;5065026;28;20009;-96
2020/12/21 09:07:46;;;;;;;15.10;4.57;;;7.30;99.90;;;;;;5079694;28;20033;-94
2020/12/21 09:10:14;;;;;;;10.02;3.45;;;7.40;99.90;;;;;;5085342;28;20024;-93
2020/12/21 09:12:39;;;;;;;10.70;3.13;;;7.40;99.90;;;;;;5086530;28;20093;-93
2020/12/21 09:15:06;;;;;;;13.80;3.40;;;7.40;99.90;;;;;;5085022;28;20020;-94
2020/12/21 09:17:32;;;;;;;12.70;3.38;;;7.40;99.90;;;;;;5083310;28;20028;-95
2020/12/21 09:19:58;;;;;;;10.32;3.28;;;7.40;99.90;;;;;;5067869;28;20035;-94
2020/12/21 09:22:24;;;;;;;9.63;3.20;;;7.50;99.90;;;;;;5072992;28;20054;-93
2020/12/21 09:24:59;;;;;;;9.18;3.00;;;7.50;99.90;;;;;;5087137;28;20020;-93
2020/12/21 09:27:26;;;;;;;11.20;3.00;;;7.50;99.90;;;;;;5072604;28;20012;-93
2020/12/21 09:30:14;;;;;;;8.60;2.90;;;7.60;99.90;;;;;;5069563;28;20031;-92
2020/12/21 09:32:42;;;;;;;11.93;3.00;;;7.60;99.90;;;;;;5066881;28;20460;-96
2020/12/21 09:35:08;;;;;;;11.13;3.30;;;7.60;99.90;;;;;;5070548;28;20099;-92
2020/12/21 09:37:37;;;;;;;8.73;2.72;;;7.70;99.90;;;;;;5074414;28;20055;-93
2020/12/21 09:40:05;;;;;;;12.75;3.42;;;7.70;99.90;;;;;;5068220;28;20024;-94
2020/12/21 09:42:33;;;;;;;15.77;4.30;;;7.70;99.90;;;;;;5069801;28;20024;-93
2020/12/21 09:44:59;;;;;;;10.73;3.67;;;7.70;99.90;;;;;;5068165;28;20418;-92
2020/12/21 09:47:30;;;;;;;8.82;3.10;;;7.80;99.90;;;;;;5062866;28;20016;-93
2020/12/21 09:49:56;;;;;;;12.60;3.13;;;7.80;99.90;;;;;;5067429;28;20564;-95
2020/12/21 09:52:24;;;;;;;12.38;3.05;;;7.80;99.90;;;;;;5070534;28;20118;-96
2020/12/21 09:54:58;;;;;;;8.32;2.70;;;7.80;99.90;;;;;;5071860;28;20420;-93
2020/12/21 09:57:30;;;;;;;11.00;3.60;;;7.90;99.90;;;;;;5085480;28;20025;-92
2020/12/21 09:59:59;;;;;;;7.15;2.67;;;7.90;99.90;;;;;;5064834;28;20074;-95
2020/12/21 10:02:25;;;;;;;12.32;3.58;;;7.90;99.90;;;;;;5090134;28;20096;-93
2020/12/21 10:04:52;;;;;;;8.80;2.90;;;8.00;99.90;;;;;;5093527;28;20538;-96
2020/12/21 10:07:19;;;;;;;9.98;3.10;;;8.00;99.90;;;;;;5076140;28;20114;-94
2020/12/21 10:09:51;;;;;;;7.55;2.42;;;8.00;99.90;;;;;;5075938;28;20020;-92
2020/12/21 10:12:22;;;;;;;8.82;2.65;;;8.00;99.90;;;;;;5070078;28;20023;-96
2020/12/21 10:14:51;;;;;;;10.10;2.88;;;8.00;99.90;;;;;;5074186;28;20016;-92
2020/12/21 10:17:20;;;;;;;10.25;3.28;;;8.00;99.90;;;;;;5060149;28;20086;-94
2020/12/21 10:19:45;;;;;;;15.82;4.43;;;8.00;99.90;;;;;;5059564;28;20071;-93
2020/12/21 10:22:11;;;;;;;11.65;3.88;;;8.00;99.90;;;;;;5069485;28;20020;-94
2020/12/21 10:24:39;;;;;;;9.52;3.35;;;8.00;99.90;;;;;;5071982;28;20055;-96
2020/12/21 10:27:08;;;;;;;9.45;3.05;;;8.00;99.90;;;;;;5077266;28;20099;-93
2020/12/21 10:29:34;;;;;;;11.93;3.20;;;8.00;99.90;;;;;;5063671;28;20110;-91
2020/12/21 10:32:00;;;;;;;14.65;3.42;;;8.00;99.90;;;;;;5090907;28;20020;-92
2020/12/21 10:34:36;;;;;;;10.52;3.03;;;8.00;99.90;;;;;;5076732;28;20043;-91
2020/12/21 10:37:02;;;;;;;6.95;2.92;;;8.00;99.90;;;;;;5075650;28;20024;-90
2020/12/21 10:39:35;;;;;;;13.70;3.50;;;8.00;99.90;;;;;;5060884;28;20048;-94
2020/12/21 10:42:08;;;;;;;13.15;3.70;;;7.90;99.90;;;;;;5059363;28;20063;-95
2020/12/21 10:44:33;;;;;;;10.60;3.47;;;7.90;99.90;;;;;;5076709;28;20086;-93
2020/12/21 10:47:02;;;;;;;11.15;3.10;;;7.80;99.90;;;;;;5077213;28;20444;-94
2020/12/21 10:49:34;;;;;;;10.93;3.75;;;7.80;99.90;;;;;;5059429;28;20024;-91
2020/12/21 10:52:06;;;;;;;12.48;3.60;;;7.80;99.90;;;;;;5059775;28;20103;-95
2020/12/21 10:54:32;;;;;;;10.65;3.83;;;7.80;99.90;;;;;;5056561;28;20020;-94
2020/12/21 10:57:02;;;;;;;12.00;3.95;;;7.70;99.90;;;;;;5060030;28;20112;-95
2020/12/21 10:59:29;;;;;;;10.27;4.00;;;7.70;99.90;;;;;;5058513;28;20522;-95
2020/12/21 11:02:03;;;;;;;13.13;4.55;;;7.70;99.90;;;;;;5072457;28;20040;-96
2020/12/21 11:04:29;;;;;;;11.52;3.53;;;7.70;99.90;;;;;;5083163;28;20088;-96
2020/12/21 11:06:56;;;;;;;15.68;4.38;;;7.60;99.90;;;;;;5079269;28;20012;-96
2020/12/21 11:09:22;;;;;;;12.82;4.82;;;7.60;99.90;;;;;;5078802;28;20048;-96
2020/12/21 11:11:47;;;;;;;12.88;5.45;;;7.70;99.90;;;;;;5096874;28;20016;-96
2020/12/21 11:14:24;;;;;;;14.43;5.25;;;7.60;99.90;;;;;;5082576;28;20069;-95
2020/12/21 11:16:58;;;;;;;10.20;4.10;;;7.60;99.90;;;;;;5100252;28;20153;-96
2020/12/21 11:19:25;;;;;;;11.75;4.95;;;7.60;99.90;;;;;;5075887;28;20154;-94
2020/12/21 11:21:51;;;;;;;14.85;5.30;;;7.70;99.90;;;;;;5070219;28;20021;-96
2020/12/21 11:24:19;;;;;;;12.55;4.38;;;7.60;99.90;;;;;;5077580;28;20031;-93
2020/12/21 11:26:52;;;;;;;9.65;4.50;;;7.70;99.90;;;;;;5071505;28;20964;-96
2020/12/21 11:29:27;;;;;;;11.55;4.85;;;7.70;99.90;;;;;;5065550;28;20618;-96
2020/12/21 11:32:11;;;;;;;;;;;;;;;;;;;;;
2020/12/21 11:34:43;;;;;;;11.50;4.95;;;7.60;99.90;;;;;;5071313;28;20554;-94
2020/12/21 11:37:17;;;;;;;12.63;5.65;;;7.60;99.90;;;;;;5060863;28;20021;-95
2020/12/21 11:40:00;;;;;;;;;;;;;;;;;;;;;
2020/12/21 11:42:27;;;;;;;18.40;6.53;;;7.60;99.90;;;;;;5064076;28;20078;-96
2020/12/21 11:44:58;;;;;;;12.35;5.88;;;7.60;99.90;;;;;;5071083;28;20017;-96
2020/12/21 11:47:47;;;;;;;;;;;;;;;;;;;;;
2020/12/21 11:50:38;;;;;;;15.70;5.68;;;7.60;99.90;;;;;;5062914;28;20108;-94
2020/12/21 11:56:01;;;;;;;19.63;6.20;;;7.60;99.90;;;;;;5065722;28;20048;-96
2020/12/21 11:58:36;;;;;;;14.23;6.30;;;7.60;99.90;;;;;;5056702;28;20464;-93
2020/12/21 12:01:05;;;;;;;11.38;5.88;;;7.60;99.90;;;;;;5066886;28;20025;-93
2020/12/21 12:03:47;;;;;;;15.45;6.88;;;7.60;99.90;;;;;;5084055;28;20024;-94
2020/12/21 12:06:13;;;;;;;14.57;6.22;;;7.60;99.90;;;;;;5084925;28;20047;-94
2020/12/21 12:08:43;;;;;;;14.32;5.35;;;7.60;99.90;;;;;;5082842;28;20137;-92
2020/12/21 12:11:40;;;;;;;15.48;6.18;;;7.60;99.90;;;;;;5073998;28;20024;-93
2020/12/21 12:14:08;;;;;;;18.42;6.10;;;7.60;99.90;;;;;;5061546;28;20049;-95
2020/12/21 12:17:04;;;;;;;13.65;6.20;;;7.60;99.90;;;;;;5061139;28;20423;-95
2020/12/21 12:19:34;;;;;;;18.38;6.53;;;7.60;99.90;;;;;;5076852;28;20071;-93
2020/12/21 12:22:21;;;;;;;15.02;6.47;;;7.60;99.90;;;;;;5061787;28;20484;-93
2020/12/21 12:24:50;;;;;;;17.85;6.65;;;7.60;99.90;;;;;;5047366;28;20058;-91
2020/12/21 12:27:25;;;;;;;13.75;6.47;;;7.60;99.90;;;;;;5087119;28;20024;-93
2020/12/21 12:30:09;;;;;;;15.77;5.88;;;7.60;99.90;;;;;;5101709;28;20023;-92
2020/12/21 12:32:38;;;;;;;14.98;6.45;;;7.60;99.90;;;;;;5068034;28;20081;-91
2020/12/21 12:35:13;;;;;;;15.23;6.88;;;7.60;99.90;;;;;;5066681;28;20025;-93
2020/12/21 12:37:47;;;;;;;14.07;6.82;;;7.60;99.90;;;;;;5083641;28;20095;-92
2020/12/21 12:40:14;;;;;;;13.60;6.28;;;7.60;99.90;;;;;;5079073;28;20604;-92
2020/12/21 12:42:54;;;;;;;13.50;6.15;;;7.60;99.90;;;;;;5063152;28;20024;-90
2020/12/21 12:45:44;;;;;;;;;;;;;;;;;;;;;
2020/12/21 12:48:25;;;;;;;12.57;6.10;;;7.60;99.90;;;;;;5080501;28;20116;-91
2020/12/21 12:51:14;;;;;;;11.77;6.60;;;7.60;99.90;;;;;;5063193;28;20052;-93
2020/12/21 12:54:05;;;;;;;19.48;7.57;;;7.60;99.90;;;;;;5077429;28;20027;-91
2020/12/21 12:56:35;;;;;;;16.90;6.60;;;7.60;99.90;;;;;;5064753;28;20065;-92
2020/12/21 13:02:14;;;;;;;18.60;6.93;;;7.60;99.90;;;;;;5080718;28;20180;-92
2020/12/21 13:04:39;;;;;;;14.40;6.45;;;7.60;99.90;;;;;;5067578;28;20111;-92
2020/12/21 13:07:17;;;;;;;16.52;7.50;;;7.60;99.90;;;;;;5076574;28;20036;-93
2020/12/21 13:09:56;;;;;;;16.48;7.25;;;7.60;99.90;;;;;;5069716;28;20020;-93